createdAt,value
2023-09-09T00:00:52.358Z,51.10
2023-09-09T00:03:21.395Z,51.10
2023-09-09T00:05:50.515Z,51.10
2023-09-09T00:08:20.025Z,51.10
2023-09-09T00:10:48.947Z,51.10
2023-09-09T00:13:17.851Z,51.20
2023-09-09T00:15:46.830Z,51.10
2023-09-09T00:18:16.230Z,51.10
2023-09-09T00:20:45.299Z,51.10
2023-09-09T00:23:14.603Z,51.10
2023-09-09T00:25:43.913Z,51.10
2023-09-09T00:28:12.922Z,51.10
2023-09-09T00:30:41.980Z,51.10
2023-09-09T00:33:11.147Z,51.10
2023-09-09T00:35:40.177Z,51.30
2023-09-09T00:38:08.941Z,51.20
2023-09-09T00:40:38.299Z,51.20
2023-09-09T00:43:07.377Z,51.10
2023-09-09T00:45:36.353Z,51.20
2023-09-09T00:48:05.515Z,51.20
2023-09-09T00:50:34.112Z,51.20
2023-09-09T00:53:02.571Z,51.20
2023-09-09T00:55:31.585Z,51.20
2023-09-09T00:58:00.783Z,51.20
2023-09-09T01:00:29.643Z,51.20
2023-09-09T01:02:58.730Z,51.20
2023-09-09T01:05:28.198Z,51.20
2023-09-09T01:07:57.337Z,51.20
2023-09-09T01:10:26.390Z,51.20
2023-09-09T01:12:54.956Z,51.20
2023-09-09T01:15:23.517Z,51.20
2023-09-09T01:17:52.078Z,51.10
2023-09-09T01:20:20.758Z,51.20
2023-09-09T01:22:49.028Z,51.20
2023-09-09T01:25:17.767Z,51.20
2023-09-09T01:27:47.212Z,51.20
2023-09-09T01:30:16.680Z,51.20
2023-09-09T01:32:45.253Z,51.20
2023-09-09T01:35:13.787Z,51.20
2023-09-09T01:37:42.254Z,51.30
2023-09-09T01:40:10.772Z,51.30
2023-09-09T01:42:39.877Z,51.30
2023-09-09T01:45:10.702Z,51.30
2023-09-09T01:47:39.913Z,51.30
2023-09-09T01:50:08.249Z,51.40
2023-09-09T01:52:36.202Z,51.30
2023-09-09T01:55:05.151Z,51.30
2023-09-09T01:57:34.853Z,51.40
2023-09-09T02:00:04.023Z,51.30
2023-09-09T02:02:40.800Z,51.30
2023-09-09T02:05:11.109Z,51.30
2023-09-09T02:07:39.543Z,51.30
2023-09-09T02:10:09.516Z,51.30
2023-09-09T02:12:39.456Z,51.30
2023-09-09T02:15:07.214Z,51.30
2023-09-09T02:17:36.485Z,51.30
2023-09-09T02:20:06.627Z,51.40
2023-09-09T02:22:35.257Z,51.30
2023-09-09T02:25:04.629Z,51.30
2023-09-09T02:27:32.929Z,51.40
2023-09-09T02:30:01.795Z,51.40
2023-09-09T02:32:30.799Z,51.30
2023-09-09T02:34:59.318Z,52.00
2023-09-09T02:37:27.867Z,51.40
2023-09-09T02:39:56.795Z,51.30
2023-09-09T02:42:26.234Z,51.30
2023-09-09T02:44:55.302Z,51.30
2023-09-09T02:47:24.534Z,51.30
2023-09-09T02:49:53.012Z,51.40
2023-09-09T02:52:23.166Z,51.30
2023-09-09T02:54:51.847Z,51.40
2023-09-09T02:57:21.056Z,51.40
2023-09-09T02:59:50.341Z,51.40
2023-09-09T03:02:18.884Z,51.40
2023-09-09T03:04:48.013Z,51.40
2023-09-09T03:07:16.526Z,51.40
2023-09-09T03:09:45.186Z,51.40
2023-09-09T03:12:14.450Z,51.40
2023-09-09T03:14:43.462Z,51.40
2023-09-09T03:17:12.429Z,51.40
2023-09-09T03:19:41.131Z,51.40
2023-09-09T03:22:09.538Z,51.40
2023-09-09T03:24:39.447Z,51.40
2023-09-09T03:27:08.849Z,51.40
2023-09-09T03:29:37.353Z,51.40
2023-09-09T03:32:05.899Z,51.50
2023-09-09T03:34:34.493Z,51.40
2023-09-09T03:37:03.094Z,51.40
2023-09-09T03:39:32.718Z,51.40
2023-09-09T03:42:01.280Z,51.40
2023-09-09T03:44:29.760Z,51.30
2023-09-09T03:46:58.783Z,51.40
2023-09-09T03:49:27.828Z,51.30
2023-09-09T03:51:56.891Z,51.40
2023-09-09T03:54:25.231Z,51.30
2023-09-09T03:56:53.242Z,51.30
2023-09-09T03:59:22.120Z,51.40
2023-09-09T04:01:51.262Z,51.40
2023-09-09T04:04:20.206Z,51.30
2023-09-09T04:06:49.734Z,51.30
2023-09-09T04:09:19.145Z,51.40
2023-09-09T04:11:47.905Z,51.30
2023-09-09T04:14:16.779Z,51.40
2023-09-09T04:16:45.446Z,51.30
2023-09-09T04:19:14.646Z,51.40
2023-09-09T04:21:44.814Z,51.50
2023-09-09T04:24:13.858Z,51.40
2023-09-09T04:26:42.374Z,51.40
2023-09-09T04:29:11.261Z,51.40
2023-09-09T04:31:40.381Z,51.30
2023-09-09T04:34:08.976Z,51.40
2023-09-09T04:36:37.664Z,51.40
2023-09-09T04:39:06.956Z,51.40
2023-09-09T04:41:36.006Z,51.30
2023-09-09T04:44:04.894Z,51.40
2023-09-09T04:46:34.037Z,51.40
2023-09-09T04:49:03.036Z,51.50
2023-09-09T04:51:31.642Z,51.40
2023-09-09T04:54:03.168Z,51.50
2023-09-09T04:56:33.726Z,51.50
2023-09-09T04:59:02.845Z,51.50
2023-09-09T05:01:32.097Z,51.50
2023-09-09T05:04:01.156Z,51.50
2023-09-09T05:06:30.070Z,51.50
2023-09-09T05:08:58.840Z,51.50
2023-09-09T05:11:26.773Z,51.50
2023-09-09T05:13:55.959Z,51.50
2023-09-09T05:16:25.110Z,51.40
2023-09-09T05:18:53.878Z,51.40
2023-09-09T05:21:22.817Z,51.50
2023-09-09T05:23:51.891Z,51.40
2023-09-09T05:26:20.526Z,51.40
2023-09-09T05:28:49.634Z,51.50
2023-09-09T05:31:18.778Z,51.40
2023-09-09T05:33:47.913Z,51.30
2023-09-09T05:36:18.156Z,51.40
2023-09-09T05:38:46.831Z,51.30
2023-09-09T05:41:15.296Z,51.30
2023-09-09T05:43:43.863Z,51.90
2023-09-09T05:46:13.116Z,51.30
2023-09-09T05:48:42.108Z,51.30
2023-09-09T05:51:11.618Z,51.30
2023-09-09T05:53:40.797Z,52.00
2023-09-09T05:56:09.642Z,51.20
2023-09-09T05:58:40.043Z,51.20
2023-09-09T06:01:09.883Z,51.20
2023-09-09T06:03:38.875Z,51.20
2023-09-09T06:06:08.263Z,51.10
2023-09-09T06:08:37.123Z,51.00
2023-09-09T06:11:05.650Z,51.00
2023-09-09T06:13:35.372Z,51.00
2023-09-09T06:16:04.982Z,51.00
2023-09-09T06:18:34.158Z,50.90
2023-09-09T06:21:02.718Z,51.00
2023-09-09T06:23:32.244Z,50.90
2023-09-09T06:26:01.447Z,50.90
2023-09-09T06:28:30.888Z,50.80
2023-09-09T06:30:59.769Z,50.70
2023-09-09T06:33:28.833Z,50.60
2023-09-09T06:35:57.953Z,50.70
2023-09-09T06:38:27.008Z,50.70
2023-09-09T06:40:55.995Z,50.70
2023-09-09T06:43:25.773Z,50.70
2023-09-09T06:45:55.168Z,50.70
2023-09-09T06:48:24.746Z,50.70
2023-09-09T06:50:53.766Z,50.60
2023-09-09T06:53:22.831Z,50.50
2023-09-09T06:55:51.440Z,50.40
2023-09-09T06:58:20.102Z,50.40
2023-09-09T07:00:48.751Z,50.20
2023-09-09T07:03:17.160Z,50.30
2023-09-09T07:05:46.412Z,50.10
2023-09-09T07:08:15.537Z,50.00
2023-09-09T07:10:46.007Z,50.00
2023-09-09T07:13:16.006Z,49.80
2023-09-09T07:15:45.465Z,49.70
2023-09-09T07:18:14.750Z,49.60
2023-09-09T07:20:44.257Z,49.50
2023-09-09T07:23:13.194Z,49.40
2023-09-09T07:25:43.491Z,49.30
2023-09-09T07:28:12.131Z,49.10
2023-09-09T07:30:41.483Z,49.10
2023-09-09T07:33:10.991Z,48.90
2023-09-09T07:35:40.461Z,48.70
2023-09-09T07:38:09.452Z,48.50
2023-09-09T07:40:38.901Z,48.40
2023-09-09T07:43:08.470Z,48.30
2023-09-09T07:45:38.192Z,48.00
2023-09-09T07:48:07.759Z,47.90
2023-09-09T07:50:37.208Z,47.70
2023-09-09T07:53:06.489Z,47.50
2023-09-09T07:55:36.026Z,47.30
2023-09-09T07:58:05.786Z,47.10
2023-09-09T08:00:35.619Z,46.90
2023-09-09T08:03:05.423Z,46.70
2023-09-09T08:05:34.969Z,46.50
2023-09-09T08:08:04.509Z,46.30
2023-09-09T08:10:33.618Z,46.20
2023-09-09T08:13:02.583Z,45.90
2023-09-09T08:15:40.194Z,45.70
2023-09-09T08:18:10.648Z,45.60
2023-09-09T08:20:40.154Z,45.30
2023-09-09T08:23:09.126Z,45.80
2023-09-09T08:25:38.652Z,45.00
2023-09-09T08:28:08.016Z,44.80
2023-09-09T08:30:37.044Z,44.60
2023-09-09T08:33:06.296Z,44.40
2023-09-09T08:35:35.318Z,44.20
2023-09-09T08:38:04.614Z,44.10
2023-09-09T08:40:32.713Z,43.90
2023-09-09T08:43:01.448Z,43.70
2023-09-09T08:45:30.535Z,43.50
2023-09-09T08:48:00.128Z,43.40
2023-09-09T08:50:29.108Z,43.20
2023-09-09T08:52:58.154Z,43.00
2023-09-09T08:55:27.689Z,42.90
2023-09-09T08:57:56.804Z,42.80
2023-09-09T09:00:25.901Z,42.60
2023-09-09T09:02:54.860Z,42.50
2023-09-09T09:05:23.973Z,42.30
2023-09-09T09:07:53.428Z,42.20
2023-09-09T09:10:22.749Z,42.10
2023-09-09T09:12:51.614Z,41.80
2023-09-09T09:15:21.107Z,41.70
2023-09-09T09:17:50.761Z,41.60
2023-09-09T09:20:21.162Z,41.40
2023-09-09T09:22:51.181Z,41.20
2023-09-09T09:25:20.721Z,41.00
2023-09-09T09:27:49.551Z,40.90
2023-09-09T09:30:18.463Z,40.80
2023-09-09T09:32:48.088Z,40.60
2023-09-09T09:35:17.669Z,40.50
2023-09-09T09:37:46.717Z,40.40
2023-09-09T09:40:15.800Z,40.20
2023-09-09T09:42:44.774Z,40.10
2023-09-09T09:45:14.166Z,40.00
2023-09-09T09:47:43.159Z,39.80
2023-09-09T09:50:12.334Z,39.60
2023-09-09T09:52:42.248Z,39.30
2023-09-09T09:55:11.876Z,39.20
2023-09-09T09:57:41.280Z,39.00
2023-09-09T10:00:10.558Z,38.90
2023-09-09T10:02:42.866Z,38.70
2023-09-09T10:05:12.458Z,38.70
2023-09-09T10:07:41.516Z,38.50
2023-09-09T10:10:10.640Z,38.40
2023-09-09T10:12:47.983Z,38.20
2023-09-09T10:15:18.333Z,38.20
2023-09-09T10:17:47.870Z,38.00
2023-09-09T10:20:17.379Z,37.90
2023-09-09T10:22:46.512Z,37.70
2023-09-09T10:25:16.084Z,37.60
2023-09-09T10:27:45.672Z,37.50
2023-09-09T10:30:14.591Z,37.40
2023-09-09T10:32:44.767Z,37.40
2023-09-09T10:35:17.637Z,37.30
2023-09-09T10:37:47.921Z,37.20
2023-09-09T10:40:17.624Z,37.20
2023-09-09T10:42:46.744Z,37.10
2023-09-09T10:45:16.479Z,37.00
2023-09-09T10:47:45.592Z,37.00
2023-09-09T10:50:15.124Z,37.50
2023-09-09T10:52:44.728Z,36.80
2023-09-09T10:55:14.562Z,36.90
2023-09-09T10:57:43.724Z,36.80
2023-09-09T11:00:12.848Z,36.70
2023-09-09T11:02:42.061Z,36.70
2023-09-09T11:05:10.788Z,36.70
2023-09-09T11:07:39.093Z,36.70
2023-09-09T11:10:08.522Z,36.70
2023-09-09T11:12:37.893Z,36.80
2023-09-09T11:15:06.821Z,36.80
2023-09-09T11:17:37.054Z,36.80
2023-09-09T11:20:08.226Z,36.80
2023-09-09T11:22:37.766Z,36.90
2023-09-09T11:25:06.904Z,37.50
2023-09-09T11:27:35.954Z,37.00
2023-09-09T11:30:05.766Z,37.10
2023-09-09T11:32:35.617Z,37.10
2023-09-09T11:35:04.902Z,37.10
2023-09-09T11:37:33.121Z,37.30
2023-09-09T11:40:02.095Z,37.40
2023-09-09T11:42:31.479Z,37.50
2023-09-09T11:45:01.113Z,37.50
2023-09-09T11:47:30.843Z,37.60
2023-09-09T11:50:00.309Z,37.70
2023-09-09T11:52:29.824Z,37.80
2023-09-09T11:54:59.091Z,37.80
2023-09-09T11:57:28.177Z,37.90
2023-09-09T11:59:58.153Z,37.80
2023-09-09T12:02:28.004Z,37.90
2023-09-09T12:04:57.462Z,37.90
2023-09-09T12:07:26.812Z,37.90
2023-09-09T12:09:55.116Z,37.80
2023-09-09T12:12:24.511Z,37.90
2023-09-09T12:14:53.585Z,38.40
2023-09-09T12:17:22.618Z,37.80
2023-09-09T12:19:51.673Z,37.80
2023-09-09T12:22:20.486Z,37.80
2023-09-09T12:24:49.541Z,37.80
2023-09-09T12:27:18.635Z,37.90
2023-09-09T12:29:47.251Z,37.80
2023-09-09T12:32:16.239Z,37.80
2023-09-09T12:34:45.069Z,37.90
2023-09-09T12:37:13.989Z,37.80
2023-09-09T12:39:43.541Z,37.80
2023-09-09T12:42:13.009Z,37.80
2023-09-09T12:44:42.527Z,37.90
2023-09-09T12:47:11.977Z,38.60
2023-09-09T12:49:40.980Z,37.90
2023-09-09T12:52:11.532Z,37.90
2023-09-09T12:54:40.407Z,37.90
2023-09-09T12:57:10.373Z,37.90
2023-09-09T12:59:39.762Z,37.90
2023-09-09T13:02:08.875Z,37.90
2023-09-09T13:04:37.642Z,38.00
2023-09-09T13:07:05.895Z,38.00
2023-09-09T13:09:35.536Z,38.10
2023-09-09T13:12:04.586Z,38.10
2023-09-09T13:14:34.052Z,38.20
2023-09-09T13:17:03.417Z,38.30
2023-09-09T13:19:35.257Z,38.30
2023-09-09T13:22:06.063Z,38.40
2023-09-09T13:24:35.289Z,38.40
2023-09-09T13:27:04.367Z,38.50
2023-09-09T13:29:34.353Z,38.50
2023-09-09T13:32:03.382Z,38.60
2023-09-09T13:34:32.288Z,38.60
2023-09-09T13:37:01.097Z,38.70
2023-09-09T13:39:30.116Z,38.70
2023-09-09T13:41:59.533Z,38.70
2023-09-09T13:44:28.493Z,38.80
2023-09-09T13:46:58.085Z,39.00
2023-09-09T13:49:27.666Z,39.10
2023-09-09T13:51:57.281Z,39.10
2023-09-09T13:54:26.851Z,39.20
2023-09-09T13:56:55.921Z,39.30
2023-09-09T13:59:25.360Z,39.40
2023-09-09T14:01:54.243Z,39.60
2023-09-09T14:04:23.593Z,39.70
2023-09-09T14:06:53.051Z,40.50
2023-09-09T14:09:22.047Z,40.10
2023-09-09T14:11:51.001Z,40.20
2023-09-09T14:14:21.657Z,40.40
2023-09-09T14:16:52.135Z,40.50
2023-09-09T14:19:21.133Z,40.70
2023-09-09T14:21:50.377Z,40.90
2023-09-09T14:24:19.924Z,41.10
2023-09-09T14:26:49.405Z,41.30
2023-09-09T14:29:19.064Z,41.40
2023-09-09T14:31:48.002Z,41.60
2023-09-09T14:34:16.767Z,41.70
2023-09-09T14:36:46.089Z,41.90
2023-09-09T14:39:15.411Z,42.10
2023-09-09T14:41:44.837Z,42.30
2023-09-09T14:44:14.396Z,42.50
2023-09-09T14:46:43.483Z,42.70
2023-09-09T14:49:13.327Z,42.90
2023-09-09T14:51:42.816Z,43.00
2023-09-09T14:54:11.725Z,43.10
2023-09-09T14:56:40.776Z,43.30
2023-09-09T14:59:10.263Z,43.40
2023-09-09T15:01:40.867Z,43.70
2023-09-09T15:04:11.241Z,43.80
2023-09-09T15:06:40.210Z,43.90
2023-09-09T15:09:09.050Z,44.00
2023-09-09T15:11:37.688Z,44.20
2023-09-09T15:14:06.557Z,44.30
2023-09-09T15:16:36.431Z,44.50
2023-09-09T15:19:06.061Z,44.60
2023-09-09T15:21:35.708Z,44.80
2023-09-09T15:24:08.679Z,44.80
2023-09-09T15:26:37.641Z,44.90
2023-09-09T15:29:07.063Z,44.90
2023-09-09T15:31:36.133Z,45.00
2023-09-09T15:34:05.712Z,45.20
2023-09-09T15:36:35.374Z,45.20
2023-09-09T15:39:04.575Z,45.30
2023-09-09T15:41:32.841Z,45.50
2023-09-09T15:44:02.333Z,45.50
2023-09-09T15:46:31.889Z,45.50
2023-09-09T15:49:01.572Z,45.60
2023-09-09T15:51:30.608Z,45.70
2023-09-09T15:53:59.935Z,45.80
2023-09-09T15:56:29.550Z,45.90
2023-09-09T15:58:59.028Z,45.90
2023-09-09T16:01:28.024Z,45.90
2023-09-09T16:03:57.569Z,46.10
2023-09-09T16:06:27.217Z,46.10
2023-09-09T16:08:57.035Z,46.20
2023-09-09T16:11:26.159Z,46.30
2023-09-09T16:13:55.130Z,46.40
2023-09-09T16:16:24.653Z,46.40
2023-09-09T16:18:53.667Z,46.50
2023-09-09T16:21:23.156Z,46.60
2023-09-09T16:23:52.791Z,46.60
2023-09-09T16:26:21.924Z,46.80
2023-09-09T16:28:50.961Z,46.80
2023-09-09T16:31:20.236Z,46.90
2023-09-09T16:33:49.809Z,46.90
2023-09-09T16:36:19.087Z,46.80
2023-09-09T16:38:47.914Z,46.90
2023-09-09T16:41:16.772Z,47.00
2023-09-09T16:43:45.822Z,47.00
2023-09-09T16:46:15.063Z,47.10
2023-09-09T16:48:44.018Z,47.10
2023-09-09T16:51:13.836Z,47.10
2023-09-09T16:53:43.302Z,47.20
2023-09-09T16:56:13.014Z,47.20
2023-09-09T16:58:42.890Z,47.30
2023-09-09T17:01:11.890Z,47.40
2023-09-09T17:03:40.854Z,47.30
2023-09-09T17:06:09.800Z,47.40
2023-09-09T17:08:38.825Z,47.40
2023-09-09T17:11:08.404Z,47.50
2023-09-09T17:13:38.116Z,47.60
2023-09-09T17:16:07.782Z,47.70
2023-09-09T17:18:36.694Z,47.70
2023-09-09T17:21:06.525Z,47.70
2023-09-09T17:23:36.290Z,47.80
2023-09-09T17:26:07.978Z,47.80
2023-09-09T17:28:38.553Z,47.80
2023-09-09T17:31:07.957Z,47.90
2023-09-09T17:33:37.378Z,47.90
2023-09-09T17:36:06.741Z,48.00
2023-09-09T17:38:35.990Z,48.10
2023-09-09T17:41:05.487Z,48.20
2023-09-09T17:43:34.502Z,48.20
2023-09-09T17:46:03.866Z,48.30
2023-09-09T17:48:32.761Z,48.30
2023-09-09T17:51:01.944Z,48.30
2023-09-09T17:53:30.271Z,48.40
2023-09-09T17:55:59.950Z,48.50
2023-09-09T17:58:29.750Z,48.50
2023-09-09T18:00:59.293Z,48.60
2023-09-09T18:03:28.757Z,48.70
2023-09-09T18:05:59.806Z,48.70
2023-09-09T18:08:31.537Z,48.80
2023-09-09T18:11:01.225Z,48.80
2023-09-09T18:13:30.402Z,48.90
2023-09-09T18:16:00.082Z,48.90
2023-09-09T18:18:29.722Z,48.90
2023-09-09T18:20:59.177Z,49.00
2023-09-09T18:23:28.732Z,49.00
2023-09-09T18:25:57.748Z,49.10
2023-09-09T18:28:27.166Z,49.10
2023-09-09T18:30:56.386Z,49.10
2023-09-09T18:33:25.176Z,49.20
2023-09-09T18:35:54.904Z,49.20
2023-09-09T18:38:23.904Z,49.20
2023-09-09T18:40:53.371Z,49.30
2023-09-09T18:43:23.288Z,49.30
2023-09-09T18:45:52.742Z,49.30
2023-09-09T18:48:22.440Z,49.40
2023-09-09T18:50:51.912Z,49.40
2023-09-09T18:53:21.347Z,49.50
2023-09-09T18:55:51.075Z,49.50
2023-09-09T18:58:20.326Z,49.50
2023-09-09T19:00:49.365Z,49.60
2023-09-09T19:03:20.182Z,49.60
2023-09-09T19:05:51.516Z,49.70
2023-09-09T19:08:19.509Z,49.60
2023-09-09T19:10:48.511Z,49.70
2023-09-09T19:13:17.949Z,49.70
2023-09-09T19:15:46.480Z,49.70
2023-09-09T19:18:16.045Z,49.70
2023-09-09T19:20:45.731Z,49.80
2023-09-09T19:23:14.770Z,50.40
2023-09-09T19:25:43.724Z,49.80
2023-09-09T19:28:12.835Z,49.80
2023-09-09T19:30:42.233Z,49.80
2023-09-09T19:33:11.191Z,49.90
2023-09-09T19:35:42.220Z,49.90
2023-09-09T19:38:14.072Z,49.90
2023-09-09T19:40:43.931Z,49.90
2023-09-09T19:43:13.758Z,49.90
2023-09-09T19:45:45.057Z,50.00
2023-09-09T19:48:13.099Z,50.00
2023-09-09T19:50:43.346Z,50.10
2023-09-09T19:53:13.221Z,50.00
2023-09-09T19:55:42.574Z,50.10
2023-09-09T19:58:12.034Z,50.10
2023-09-09T20:00:41.012Z,50.10
2023-09-09T20:03:10.001Z,50.10
2023-09-09T20:05:39.353Z,50.10
2023-09-09T20:08:08.910Z,50.10
2023-09-09T20:10:38.294Z,50.10
2023-09-09T20:13:07.616Z,50.10
2023-09-09T20:15:36.974Z,50.10
2023-09-09T20:18:06.273Z,50.20
2023-09-09T20:20:35.258Z,50.80
2023-09-09T20:23:04.367Z,50.20
2023-09-09T20:25:33.697Z,50.20
2023-09-09T20:28:03.152Z,50.20
2023-09-09T20:30:32.178Z,50.30
2023-09-09T20:33:00.970Z,50.30
2023-09-09T20:35:34.693Z,50.30
2023-09-09T20:38:04.042Z,50.20
2023-09-09T20:40:32.846Z,50.30
2023-09-09T20:43:01.838Z,50.40
2023-09-09T20:45:31.298Z,50.30
2023-09-09T20:48:00.055Z,50.30
2023-09-09T20:50:28.145Z,50.30
2023-09-09T20:52:56.708Z,50.40
2023-09-09T20:55:26.439Z,50.40
2023-09-09T20:57:55.447Z,50.40
2023-09-09T21:00:25.099Z,50.40
2023-09-09T21:02:54.666Z,50.50
2023-09-09T21:05:24.191Z,50.40
2023-09-09T21:07:53.700Z,50.40
2023-09-09T21:10:22.605Z,50.40
2023-09-09T21:12:52.197Z,50.40
2023-09-09T21:15:20.857Z,50.50
2023-09-09T21:17:49.812Z,50.40
2023-09-09T21:20:18.870Z,50.40
2023-09-09T21:22:48.372Z,50.40
2023-09-09T21:25:17.923Z,50.50
2023-09-09T21:27:46.963Z,50.50
2023-09-09T21:30:15.632Z,50.50
2023-09-09T21:32:44.585Z,50.50
2023-09-09T21:35:14.145Z,50.50
2023-09-09T21:37:43.530Z,50.50
2023-09-09T21:40:12.780Z,50.50
2023-09-09T21:42:41.292Z,50.60
2023-09-09T21:45:10.771Z,50.50
2023-09-09T21:47:40.161Z,50.50
2023-09-09T21:50:09.629Z,50.60
2023-09-09T21:52:39.121Z,50.50
2023-09-09T21:55:08.398Z,50.60
2023-09-09T21:57:37.514Z,50.60
2023-09-09T22:00:05.987Z,50.60
2023-09-09T22:02:35.162Z,50.60
2023-09-09T22:05:04.825Z,50.50
2023-09-09T22:07:34.048Z,50.50
2023-09-09T22:10:03.471Z,50.50
2023-09-09T22:12:33.147Z,50.50
2023-09-09T22:15:02.569Z,50.50
2023-09-09T22:17:32.156Z,50.50
2023-09-09T22:20:01.397Z,51.20
2023-09-09T22:22:30.305Z,50.50
2023-09-09T22:24:59.795Z,50.60
2023-09-09T22:27:28.823Z,50.60
2023-09-09T22:29:57.698Z,50.50
2023-09-09T22:32:27.318Z,50.60
2023-09-09T22:34:56.364Z,50.60
2023-09-09T22:37:25.383Z,50.60
2023-09-09T22:39:54.489Z,50.60
2023-09-09T22:42:23.894Z,50.60
2023-09-09T22:44:53.377Z,50.60
2023-09-09T22:47:22.839Z,50.60
2023-09-09T22:49:51.966Z,50.60
2023-09-09T22:52:21.071Z,50.60
2023-09-09T22:54:50.284Z,50.60
2023-09-09T22:57:19.966Z,50.60
2023-09-09T22:59:49.459Z,50.60
2023-09-09T23:02:19.103Z,50.60
2023-09-09T23:04:48.849Z,50.70
2023-09-09T23:07:18.466Z,50.60
2023-09-09T23:09:48.125Z,50.60
2023-09-09T23:12:17.309Z,50.60
2023-09-09T23:14:46.418Z,50.60
2023-09-09T23:17:19.971Z,50.60
2023-09-09T23:19:49.451Z,50.60
2023-09-09T23:22:18.915Z,50.50
2023-09-09T23:24:47.739Z,50.60
2023-09-09T23:27:16.388Z,50.60
2023-09-09T23:29:44.663Z,50.60
2023-09-09T23:32:14.067Z,50.60
2023-09-09T23:34:43.643Z,50.60
2023-09-09T23:37:13.298Z,50.60
2023-09-09T23:39:48.321Z,50.60
2023-09-09T23:42:17.879Z,50.60
2023-09-09T23:44:47.294Z,50.60
2023-09-09T23:47:16.170Z,50.60
2023-09-09T23:49:45.487Z,50.60
2023-09-09T23:52:15.057Z,50.60
2023-09-09T23:54:44.145Z,50.60
2023-09-09T23:57:13.617Z,50.60
2023-09-09T23:59:43.270Z,50.60
